Terminal Aerodrome Forecast
Issued by NWS

Home | Current Version | Previous Version | Text Only | Print | Product List | Glossary On
Versions: 1 2 3 4 5 6 7 8 9 10 11 12 13 14 15 16
207
FTUS46 KMTR 250521
TAFOAK
TAF
KOAK 250521Z 2506/2612 VRB03KT P6SM SCT100 BKN200
     FM251000 VRB04KT P6SM FEW010 FEW100 BKN200
     FM251900 20007KT P6SM FEW100 BKN200
     FM252300 18006KT P6SM OVC150
     FM260600 18010KT P6SM OVC200=

USA.gov is the U.S. government's official web portal to all federal, state and local government web resources and services.